createdAt,value
2022-09-28T00:01:39.809Z,59.93
2022-09-28T00:04:28.373Z,58.80
2022-09-28T00:07:16.718Z,58.63
2022-09-28T00:10:07.578Z,58.60
2022-09-28T00:12:56.418Z,59.63
2022-09-28T00:15:44.746Z,59.70
2022-09-28T00:18:34.047Z,60.40
2022-09-28T00:21:24.173Z,61.70
2022-09-28T00:24:16.025Z,62.97
2022-09-28T00:27:06.190Z,62.53
2022-09-28T00:29:55.193Z,61.80
2022-09-28T00:32:52.961Z,61.57
2022-09-28T00:35:49.484Z,62.47
2022-09-28T00:38:41.068Z,61.53
2022-09-28T00:41:49.170Z,63.17
2022-09-28T00:44:45.427Z,62.00
2022-09-28T00:47:52.303Z,63.47
2022-09-28T00:50:42.266Z,60.70
2022-09-28T00:53:38.856Z,61.03
2022-09-28T00:56:31.571Z,61.93
2022-09-28T00:59:25.199Z,62.03
2022-09-28T01:02:16.587Z,62.23
2022-09-28T01:05:10.342Z,62.03
2022-09-28T01:08:00.009Z,62.40
2022-09-28T01:10:48.997Z,63.73
2022-09-28T01:13:42.368Z,64.57
2022-09-28T01:16:39.512Z,63.63
2022-09-28T01:20:00.292Z,63.37
2022-09-28T01:23:24.245Z,64.13
2022-09-28T01:26:40.885Z,64.33
2022-09-28T01:29:38.905Z,64.00
2022-09-28T01:32:36.612Z,64.70
2022-09-28T01:35:28.739Z,62.90
2022-09-28T01:38:21.898Z,65.30
2022-09-28T01:41:11.408Z,66.33
2022-09-28T01:44:04.036Z,65.97
2022-09-28T01:46:54.870Z,64.87
2022-09-28T01:49:47.335Z,64.63
2022-09-28T01:52:41.403Z,64.87
2022-09-28T01:55:33.994Z,63.90
2022-09-28T01:58:29.618Z,63.43
2022-09-28T02:01:23.750Z,63.63
2022-09-28T02:04:17.054Z,63.83
2022-09-28T02:07:14.208Z,66.73
2022-09-28T02:10:09.785Z,66.63
2022-09-28T02:13:03.750Z,65.13
2022-09-28T02:15:54.591Z,65.30
2022-09-28T02:18:45.641Z,63.13
2022-09-28T02:21:42.981Z,64.77
2022-09-28T02:24:38.903Z,64.37
2022-09-28T02:27:35.758Z,61.57
2022-09-28T02:30:24.398Z,60.67
2022-09-28T02:33:17.829Z,60.17
2022-09-28T02:36:08.152Z,58.67
2022-09-28T02:39:01.317Z,58.63
2022-09-28T02:42:03.011Z,56.87
2022-09-28T02:45:07.299Z,56.73
2022-09-28T02:48:08.832Z,56.97
2022-09-28T02:51:07.328Z,54.97
2022-09-28T02:54:24.917Z,55.20
2022-09-28T02:57:25.222Z,53.80
2022-09-28T03:00:18.795Z,52.50
2022-09-28T03:03:18.882Z,52.10
2022-09-28T03:06:16.935Z,51.63
2022-09-28T03:09:19.768Z,49.90
2022-09-28T03:12:12.333Z,47.90
2022-09-28T03:15:10.890Z,45.30
2022-09-28T03:18:00.755Z,43.50
2022-09-28T03:20:50.164Z,41.53
2022-09-28T03:23:38.712Z,40.20
2022-09-28T03:26:28.460Z,38.23
2022-09-28T03:29:17.423Z,37.53
2022-09-28T03:32:08.572Z,36.07
2022-09-28T03:34:57.265Z,34.87
2022-09-28T03:37:45.627Z,35.33
2022-09-28T03:40:34.074Z,35.60
2022-09-28T03:43:24.383Z,34.77
2022-09-28T03:46:14.260Z,34.70
2022-09-28T03:49:07.386Z,34.90
2022-09-28T03:51:55.749Z,34.43
2022-09-28T03:54:49.050Z,34.87
2022-09-28T03:57:37.903Z,35.10
2022-09-28T04:00:28.051Z,34.67
2022-09-28T04:03:17.144Z,34.23
2022-09-28T04:06:05.871Z,34.57
2022-09-28T04:08:54.386Z,34.00
2022-09-28T04:12:02.314Z,34.07
2022-09-28T04:14:51.544Z,35.73
2022-09-28T04:17:41.307Z,35.20
2022-09-28T04:20:41.013Z,35.27
2022-09-28T04:23:34.716Z,35.27
2022-09-28T04:26:25.153Z,35.97
2022-09-28T04:29:19.019Z,35.90
2022-09-28T04:32:11.541Z,35.50
2022-09-28T04:35:03.131Z,34.93
2022-09-28T04:37:51.653Z,35.70
2022-09-28T04:40:40.357Z,36.63
2022-09-28T04:43:29.524Z,35.63
2022-09-28T04:46:18.725Z,36.00
2022-09-28T04:49:24.560Z,36.13
2022-09-28T04:52:26.816Z,37.10
2022-09-28T04:55:15.590Z,38.07
2022-09-28T04:58:05.600Z,38.40
2022-09-28T05:00:55.511Z,38.27
2022-09-28T05:04:02.780Z,38.80
2022-09-28T05:07:09.846Z,39.27
2022-09-28T05:10:01.736Z,40.37
2022-09-28T05:12:52.552Z,40.27
2022-09-28T05:15:42.538Z,38.53
2022-09-28T05:18:30.981Z,38.67
2022-09-28T05:21:25.524Z,38.13
2022-09-28T05:24:14.175Z,37.93
2022-09-28T05:27:07.118Z,38.87
2022-09-28T05:29:55.728Z,39.17
2022-09-28T05:33:03.190Z,38.57
2022-09-28T05:36:04.316Z,37.83
2022-09-28T05:38:52.902Z,37.87
2022-09-28T05:41:41.376Z,36.87
2022-09-28T05:44:31.226Z,36.57
2022-09-28T05:47:19.772Z,36.13
2022-09-28T05:50:11.856Z,36.10
2022-09-28T05:53:02.281Z,36.37
2022-09-28T05:55:50.771Z,37.30
2022-09-28T05:58:39.298Z,37.30
2022-09-28T06:01:29.326Z,37.83
2022-09-28T06:04:19.800Z,35.80
2022-09-28T06:07:09.744Z,34.67
2022-09-28T06:09:58.372Z,33.23
2022-09-28T06:13:00.053Z,32.50
2022-09-28T06:15:48.487Z,31.67
2022-09-28T06:18:38.478Z,31.67
2022-09-28T06:21:32.776Z,29.97
2022-09-28T06:24:21.226Z,30.73
2022-09-28T06:27:09.557Z,30.60
2022-09-28T06:30:00.975Z,29.60
2022-09-28T06:32:50.044Z,29.53
2022-09-28T06:35:40.058Z,28.37
2022-09-28T06:38:28.731Z,27.80
2022-09-28T06:41:17.095Z,25.33
2022-09-28T06:44:09.105Z,23.93
2022-09-28T06:47:17.678Z,23.90
2022-09-28T06:50:34.963Z,24.47
2022-09-28T06:53:43.393Z,23.30
2022-09-28T06:56:50.145Z,22.13
2022-09-28T06:59:40.570Z,20.23
2022-09-28T07:02:28.999Z,18.20
2022-09-28T07:05:37.869Z,15.83
2022-09-28T07:08:48.798Z,15.23
2022-09-28T07:12:04.269Z,15.60
2022-09-28T07:15:03.945Z,14.40
2022-09-28T07:18:02.391Z,13.77
2022-09-28T07:20:54.651Z,12.33
2022-09-28T07:23:52.394Z,11.27
2022-09-28T07:26:45.491Z,10.27
2022-09-28T07:30:00.083Z,9.80
2022-09-28T07:33:21.008Z,9.70
2022-09-28T07:36:11.865Z,9.70
2022-09-28T07:39:01.816Z,8.83
2022-09-28T07:41:49.393Z,8.00
2022-09-28T07:44:41.100Z,8.10
2022-09-28T07:47:34.647Z,7.63
2022-09-28T07:50:41.937Z,5.67
2022-09-28T07:53:41.593Z,5.60
2022-09-28T07:57:00.545Z,5.93
